sensor_id;sensor_type;location;lat;lon;timestamp;temperature;humidity
3300;DHT22;1662;49.310;8.134;2024-03-07T00:00:34;8.20;99.90
3300;DHT22;1662;49.310;8.134;2024-03-07T00:03:00;8.20;99.90
3300;DHT22;1662;49.310;8.134;2024-03-07T00:05:26;8.30;99.90
3300;DHT22;1662;49.310;8.134;2024-03-07T00:07:52;8.30;99.90
3300;DHT22;1662;49.310;8.134;2024-03-07T00:10:18;8.20;99.90
3300;DHT22;1662;49.310;8.134;2024-03-07T00:12:44;8.30;99.90
3300;DHT22;1662;49.310;8.134;2024-03-07T00:15:13;8.30;99.90
3300;DHT22;1662;49.310;8.134;2024-03-07T00:17:39;8.30;99.90
3300;DHT22;1662;49.310;8.134;2024-03-07T00:20:08;8.30;99.90
3300;DHT22;1662;49.310;8.134;2024-03-07T00:22:35;8.30;99.90
3300;DHT22;1662;49.310;8.134;2024-03-07T00:25:02;8.30;99.90
3300;DHT22;1662;49.310;8.134;2024-03-07T00:27:30;8.30;99.90
3300;DHT22;1662;49.310;8.134;2024-03-07T00:29:56;8.20;99.90
3300;DHT22;1662;49.310;8.134;2024-03-07T00:32:23;8.20;99.90
3300;DHT22;1662;49.310;8.134;2024-03-07T00:34:51;8.20;99.90
3300;DHT22;1662;49.310;8.134;2024-03-07T00:37:17;8.20;99.90
3300;DHT22;1662;49.310;8.134;2024-03-07T00:39:43;8.20;99.90
3300;DHT22;1662;49.310;8.134;2024-03-07T00:42:08;8.20;99.90
3300;DHT22;1662;49.310;8.134;2024-03-07T00:44:34;8.20;99.90
3300;DHT22;1662;49.310;8.134;2024-03-07T00:47:01;8.20;99.90
3300;DHT22;1662;49.310;8.134;2024-03-07T00:49:30;8.10;99.90
3300;DHT22;1662;49.310;8.134;2024-03-07T00:51:57;8.10;99.90
3300;DHT22;1662;49.310;8.134;2024-03-07T00:54:29;8.10;99.90
3300;DHT22;1662;49.310;8.134;2024-03-07T00:56:55;8.10;99.90
3300;DHT22;1662;49.310;8.134;2024-03-07T00:59:20;8.10;99.90
3300;DHT22;1662;49.310;8.134;2024-03-07T01:01:46;8.10;99.90
3300;DHT22;1662;49.310;8.134;2024-03-07T01:04:12;8.10;99.90
3300;DHT22;1662;49.310;8.134;2024-03-07T01:06:40;8.10;99.90
3300;DHT22;1662;49.310;8.134;2024-03-07T01:09:06;8.10;99.90
3300;DHT22;1662;49.310;8.134;2024-03-07T01:11:45;8.10;99.90
3300;DHT22;1662;49.310;8.134;2024-03-07T01:14:11;8.10;99.90
3300;DHT22;1662;49.310;8.134;2024-03-07T01:16:37;8.10;99.90
3300;DHT22;1662;49.310;8.134;2024-03-07T01:19:03;8.00;99.90
3300;DHT22;1662;49.310;8.134;2024-03-07T01:21:37;8.00;99.90
3300;DHT22;1662;49.310;8.134;2024-03-07T01:24:05;8.00;99.90
3300;DHT22;1662;49.310;8.134;2024-03-07T01:26:31;8.00;99.90
3300;DHT22;1662;49.310;8.134;2024-03-07T01:29:01;7.90;99.90
3300;DHT22;1662;49.310;8.134;2024-03-07T01:31:27;8.00;99.90
3300;DHT22;1662;49.310;8.134;2024-03-07T01:33:52;8.00;99.90
3300;DHT22;1662;49.310;8.134;2024-03-07T01:36:20;8.00;99.90
3300;DHT22;1662;49.310;8.134;2024-03-07T01:38:46;8.00;99.90
3300;DHT22;1662;49.310;8.134;2024-03-07T01:41:12;8.00;99.90
3300;DHT22;1662;49.310;8.134;2024-03-07T01:43:43;8.00;99.90
3300;DHT22;1662;49.310;8.134;2024-03-07T01:46:09;8.00;99.90
3300;DHT22;1662;49.310;8.134;2024-03-07T01:48:36;8.00;99.90
3300;DHT22;1662;49.310;8.134;2024-03-07T01:51:03;8.00;99.90
3300;DHT22;1662;49.310;8.134;2024-03-07T01:53:30;8.00;99.90
3300;DHT22;1662;49.310;8.134;2024-03-07T01:56:02;8.00;99.90
3300;DHT22;1662;49.310;8.134;2024-03-07T01:58:29;7.90;99.90
3300;DHT22;1662;49.310;8.134;2024-03-07T02:00:56;7.90;99.90
3300;DHT22;1662;49.310;8.134;2024-03-07T02:03:21;7.90;99.90
3300;DHT22;1662;49.310;8.134;2024-03-07T02:05:49;7.80;99.90
3300;DHT22;1662;49.310;8.134;2024-03-07T02:08:17;7.80;99.90
3300;DHT22;1662;49.310;8.134;2024-03-07T02:10:42;7.80;99.90
3300;DHT22;1662;49.310;8.134;2024-03-07T02:13:08;7.80;99.90
3300;DHT22;1662;49.310;8.134;2024-03-07T02:15:34;7.80;99.90
3300;DHT22;1662;49.310;8.134;2024-03-07T02:17:59;7.80;99.90
3300;DHT22;1662;49.310;8.134;2024-03-07T02:20:25;7.80;99.90
3300;DHT22;1662;49.310;8.134;2024-03-07T02:22:54;7.80;99.90
3300;DHT22;1662;49.310;8.134;2024-03-07T02:25:19;7.80;99.90
3300;DHT22;1662;49.310;8.134;2024-03-07T02:27:47;7.80;99.90
3300;DHT22;1662;49.310;8.134;2024-03-07T02:30:15;7.80;99.90
3300;DHT22;1662;49.310;8.134;2024-03-07T02:32:47;7.80;99.90
3300;DHT22;1662;49.310;8.134;2024-03-07T02:35:20;7.70;99.90
3300;DHT22;1662;49.310;8.134;2024-03-07T02:37:45;7.80;99.90
3300;DHT22;1662;49.310;8.134;2024-03-07T02:40:14;7.70;99.90
3300;DHT22;1662;49.310;8.134;2024-03-07T02:42:40;7.70;99.90
3300;DHT22;1662;49.310;8.134;2024-03-07T02:45:06;7.70;99.90
3300;DHT22;1662;49.310;8.134;2024-03-07T02:47:31;7.70;99.90
3300;DHT22;1662;49.310;8.134;2024-03-07T02:49:57;7.60;99.90
3300;DHT22;1662;49.310;8.134;2024-03-07T02:52:23;7.60;99.90
3300;DHT22;1662;49.310;8.134;2024-03-07T02:54:48;7.60;99.90
3300;DHT22;1662;49.310;8.134;2024-03-07T02:57:14;7.60;99.90
3300;DHT22;1662;49.310;8.134;2024-03-07T02:59:41;7.60;99.90
3300;DHT22;1662;49.310;8.134;2024-03-07T03:02:09;7.60;99.90
3300;DHT22;1662;49.310;8.134;2024-03-07T03:04:35;7.60;99.90
3300;DHT22;1662;49.310;8.134;2024-03-07T03:07:00;7.60;99.90
3300;DHT22;1662;49.310;8.134;2024-03-07T03:09:26;7.60;99.90
3300;DHT22;1662;49.310;8.134;2024-03-07T03:11:54;7.50;99.90
3300;DHT22;1662;49.310;8.134;2024-03-07T03:14:25;7.60;99.90
3300;DHT22;1662;49.310;8.134;2024-03-07T03:16:51;7.60;99.90
3300;DHT22;1662;49.310;8.134;2024-03-07T03:19:22;7.60;99.90
3300;DHT22;1662;49.310;8.134;2024-03-07T03:21:48;7.70;99.90
3300;DHT22;1662;49.310;8.134;2024-03-07T03:24:16;7.60;99.90
3300;DHT22;1662;49.310;8.134;2024-03-07T03:26:44;7.60;99.90
3300;DHT22;1662;49.310;8.134;2024-03-07T03:29:10;7.60;99.90
3300;DHT22;1662;49.310;8.134;2024-03-07T03:31:37;7.50;99.90
3300;DHT22;1662;49.310;8.134;2024-03-07T03:34:02;7.50;99.90
3300;DHT22;1662;49.310;8.134;2024-03-07T03:36:28;7.40;99.90
3300;DHT22;1662;49.310;8.134;2024-03-07T03:38:55;7.40;99.90
3300;DHT22;1662;49.310;8.134;2024-03-07T03:41:21;7.40;99.90
3300;DHT22;1662;49.310;8.134;2024-03-07T03:43:53;7.40;99.90
3300;DHT22;1662;49.310;8.134;2024-03-07T03:46:19;7.30;99.90
3300;DHT22;1662;49.310;8.134;2024-03-07T03:48:44;7.30;99.90
3300;DHT22;1662;49.310;8.134;2024-03-07T03:51:10;7.30;99.90
3300;DHT22;1662;49.310;8.134;2024-03-07T03:53:38;7.30;99.90
3300;DHT22;1662;49.310;8.134;2024-03-07T03:56:10;7.30;99.90
3300;DHT22;1662;49.310;8.134;2024-03-07T03:58:37;7.40;99.90
3300;DHT22;1662;49.310;8.134;2024-03-07T04:01:02;7.30;99.90
3300;DHT22;1662;49.310;8.134;2024-03-07T04:03:28;7.30;99.90
3300;DHT22;1662;49.310;8.134;2024-03-07T04:05:54;7.30;99.90
3300;DHT22;1662;49.310;8.134;2024-03-07T04:08:20;7.20;99.90
3300;DHT22;1662;49.310;8.134;2024-03-07T04:10:46;7.20;99.90
3300;DHT22;1662;49.310;8.134;2024-03-07T04:13:11;7.20;99.90
3300;DHT22;1662;49.310;8.134;2024-03-07T04:15:37;7.10;99.90
3300;DHT22;1662;49.310;8.134;2024-03-07T04:18:03;7.10;99.90
3300;DHT22;1662;49.310;8.134;2024-03-07T04:20:28;7.10;99.90
3300;DHT22;1662;49.310;8.134;2024-03-07T04:22:54;7.10;99.90
3300;DHT22;1662;49.310;8.134;2024-03-07T04:25:21;7.10;99.90
3300;DHT22;1662;49.310;8.134;2024-03-07T04:27:46;7.10;99.90
3300;DHT22;1662;49.310;8.134;2024-03-07T04:30:15;7.00;99.90
3300;DHT22;1662;49.310;8.134;2024-03-07T04:32:42;7.00;99.90
3300;DHT22;1662;49.310;8.134;2024-03-07T04:35:10;6.90;99.90
3300;DHT22;1662;49.310;8.134;2024-03-07T04:37:36;6.90;99.90
3300;DHT22;1662;49.310;8.134;2024-03-07T04:40:06;6.90;99.90
3300;DHT22;1662;49.310;8.134;2024-03-07T04:42:41;6.90;99.90
3300;DHT22;1662;49.310;8.134;2024-03-07T04:45:08;6.90;99.90
3300;DHT22;1662;49.310;8.134;2024-03-07T04:47:41;6.80;99.90
3300;DHT22;1662;49.310;8.134;2024-03-07T04:50:08;6.70;99.90
3300;DHT22;1662;49.310;8.134;2024-03-07T04:52:36;6.70;99.90
3300;DHT22;1662;49.310;8.134;2024-03-07T04:55:04;6.60;99.90
3300;DHT22;1662;49.310;8.134;2024-03-07T04:57:34;6.60;99.90
3300;DHT22;1662;49.310;8.134;2024-03-07T05:00:00;6.60;99.90
3300;DHT22;1662;49.310;8.134;2024-03-07T05:02:26;6.50;99.90
3300;DHT22;1662;49.310;8.134;2024-03-07T05:04:52;6.40;99.90
3300;DHT22;1662;49.310;8.134;2024-03-07T05:07:18;6.30;99.90
3300;DHT22;1662;49.310;8.134;2024-03-07T05:09:49;6.20;99.90
3300;DHT22;1662;49.310;8.134;2024-03-07T05:12:17;6.20;99.90
3300;DHT22;1662;49.310;8.134;2024-03-07T05:14:42;6.10;99.90
3300;DHT22;1662;49.310;8.134;2024-03-07T05:17:08;6.10;99.90
3300;DHT22;1662;49.310;8.134;2024-03-07T05:19:37;6.10;99.90
3300;DHT22;1662;49.310;8.134;2024-03-07T05:22:03;6.10;99.90
3300;DHT22;1662;49.310;8.134;2024-03-07T05:24:31;6.10;99.90
3300;DHT22;1662;49.310;8.134;2024-03-07T05:26:58;6.10;99.90
3300;DHT22;1662;49.310;8.134;2024-03-07T05:29:24;6.00;99.90
3300;DHT22;1662;49.310;8.134;2024-03-07T05:31:49;6.00;99.90
3300;DHT22;1662;49.310;8.134;2024-03-07T05:34:18;5.90;99.90
3300;DHT22;1662;49.310;8.134;2024-03-07T05:36:51;5.90;99.90
3300;DHT22;1662;49.310;8.134;2024-03-07T05:39:17;5.80;99.90
3300;DHT22;1662;49.310;8.134;2024-03-07T05:41:44;5.70;99.90
3300;DHT22;1662;49.310;8.134;2024-03-07T05:44:13;5.70;99.90
3300;DHT22;1662;49.310;8.134;2024-03-07T05:46:40;5.70;99.90
3300;DHT22;1662;49.310;8.134;2024-03-07T05:49:15;5.70;99.90
3300;DHT22;1662;49.310;8.134;2024-03-07T05:51:42;5.60;99.90
3300;DHT22;1662;49.310;8.134;2024-03-07T05:54:11;5.60;99.90
3300;DHT22;1662;49.310;8.134;2024-03-07T05:56:39;5.50;99.90
3300;DHT22;1662;49.310;8.134;2024-03-07T05:59:05;5.50;99.90
3300;DHT22;1662;49.310;8.134;2024-03-07T06:01:33;5.50;99.90
3300;DHT22;1662;49.310;8.134;2024-03-07T06:04:00;5.50;99.90
3300;DHT22;1662;49.310;8.134;2024-03-07T06:06:26;5.50;99.90
3300;DHT22;1662;49.310;8.134;2024-03-07T06:08:52;5.50;99.90
3300;DHT22;1662;49.310;8.134;2024-03-07T06:11:18;5.50;99.90
3300;DHT22;1662;49.310;8.134;2024-03-07T06:13:49;5.50;99.90
3300;DHT22;1662;49.310;8.134;2024-03-07T06:16:15;5.50;99.90
3300;DHT22;1662;49.310;8.134;2024-03-07T06:18:41;5.50;99.90
3300;DHT22;1662;49.310;8.134;2024-03-07T06:21:07;5.50;99.90
3300;DHT22;1662;49.310;8.134;2024-03-07T06:23:34;5.50;99.90
3300;DHT22;1662;49.310;8.134;2024-03-07T06:26:02;5.50;99.90
3300;DHT22;1662;49.310;8.134;2024-03-07T06:28:38;5.50;99.90
3300;DHT22;1662;49.310;8.134;2024-03-07T06:31:04;5.50;99.90
3300;DHT22;1662;49.310;8.134;2024-03-07T06:33:36;5.50;99.90
3300;DHT22;1662;49.310;8.134;2024-03-07T06:36:02;5.50;99.90
3300;DHT22;1662;49.310;8.134;2024-03-07T06:38:28;5.50;99.90
3300;DHT22;1662;49.310;8.134;2024-03-07T06:40:54;5.40;99.90
3300;DHT22;1662;49.310;8.134;2024-03-07T06:43:19;5.40;99.90
3300;DHT22;1662;49.310;8.134;2024-03-07T06:45:45;5.40;99.90
3300;DHT22;1662;49.310;8.134;2024-03-07T06:48:11;5.40;99.90
3300;DHT22;1662;49.310;8.134;2024-03-07T06:50:39;5.40;99.90
3300;DHT22;1662;49.310;8.134;2024-03-07T06:53:06;5.40;99.90
3300;DHT22;1662;49.310;8.134;2024-03-07T06:55:34;5.40;99.90
3300;DHT22;1662;49.310;8.134;2024-03-07T06:58:03;5.40;99.90
3300;DHT22;1662;49.310;8.134;2024-03-07T07:00:32;5.50;99.90
3300;DHT22;1662;49.310;8.134;2024-03-07T07:03:01;5.50;99.90
3300;DHT22;1662;49.310;8.134;2024-03-07T07:05:29;5.50;99.90
3300;DHT22;1662;49.310;8.134;2024-03-07T07:07:55;5.50;99.90
3300;DHT22;1662;49.310;8.134;2024-03-07T07:10:21;5.60;99.90
3300;DHT22;1662;49.310;8.134;2024-03-07T07:12:50;5.60;99.90
3300;DHT22;1662;49.310;8.134;2024-03-07T07:15:17;5.70;99.90
3300;DHT22;1662;49.310;8.134;2024-03-07T07:17:44;5.70;99.90
3300;DHT22;1662;49.310;8.134;2024-03-07T07:20:17;5.70;99.90
3300;DHT22;1662;49.310;8.134;2024-03-07T07:22:46;5.90;99.90
3300;DHT22;1662;49.310;8.134;2024-03-07T07:25:13;6.00;99.90
3300;DHT22;1662;49.310;8.134;2024-03-07T07:27:47;6.00;99.90
3300;DHT22;1662;49.310;8.134;2024-03-07T07:30:18;6.10;99.90
3300;DHT22;1662;49.310;8.134;2024-03-07T07:32:45;6.10;99.90
3300;DHT22;1662;49.310;8.134;2024-03-07T07:35:11;6.20;99.90
3300;DHT22;1662;49.310;8.134;2024-03-07T07:37:44;6.30;99.90
3300;DHT22;1662;49.310;8.134;2024-03-07T07:40:12;6.30;99.90
3300;DHT22;1662;49.310;8.134;2024-03-07T07:42:44;6.40;99.90
3300;DHT22;1662;49.310;8.134;2024-03-07T07:45:12;6.40;99.90
3300;DHT22;1662;49.310;8.134;2024-03-07T07:47:39;6.50;99.90
3300;DHT22;1662;49.310;8.134;2024-03-07T07:50:14;6.40;99.90
3300;DHT22;1662;49.310;8.134;2024-03-07T07:52:44;6.40;99.90
3300;DHT22;1662;49.310;8.134;2024-03-07T07:55:11;6.30;99.90
3300;DHT22;1662;49.310;8.134;2024-03-07T07:57:44;6.30;99.90
3300;DHT22;1662;49.310;8.134;2024-03-07T08:00:16;6.30;99.90
3300;DHT22;1662;49.310;8.134;2024-03-07T08:03:09;6.20;99.90
3300;DHT22;1662;49.310;8.134;2024-03-07T08:05:37;6.30;99.90
3300;DHT22;1662;49.310;8.134;2024-03-07T08:08:08;6.30;99.90
3300;DHT22;1662;49.310;8.134;2024-03-07T08:10:39;6.40;99.90
3300;DHT22;1662;49.310;8.134;2024-03-07T08:13:09;6.40;99.90
3300;DHT22;1662;49.310;8.134;2024-03-07T08:15:36;6.40;99.90
3300;DHT22;1662;49.310;8.134;2024-03-07T08:18:02;6.40;99.90
3300;DHT22;1662;49.310;8.134;2024-03-07T08:20:34;6.40;99.90
3300;DHT22;1662;49.310;8.134;2024-03-07T08:23:00;6.50;99.90
3300;DHT22;1662;49.310;8.134;2024-03-07T08:25:27;6.40;99.90
3300;DHT22;1662;49.310;8.134;2024-03-07T08:27:55;6.40;99.90
3300;DHT22;1662;49.310;8.134;2024-03-07T08:30:22;6.50;99.90
3300;DHT22;1662;49.310;8.134;2024-03-07T08:32:55;6.50;99.90
3300;DHT22;1662;49.310;8.134;2024-03-07T08:35:21;6.60;99.90
3300;DHT22;1662;49.310;8.134;2024-03-07T08:37:48;6.60;99.90
3300;DHT22;1662;49.310;8.134;2024-03-07T08:40:22;6.70;99.90
3300;DHT22;1662;49.310;8.134;2024-03-07T08:42:49;6.80;99.90
3300;DHT22;1662;49.310;8.134;2024-03-07T08:45:20;6.80;99.90
3300;DHT22;1662;49.310;8.134;2024-03-07T08:47:49;6.90;99.90
3300;DHT22;1662;49.310;8.134;2024-03-07T08:50:16;6.90;99.90
3300;DHT22;1662;49.310;8.134;2024-03-07T08:52:44;7.00;99.90
3300;DHT22;1662;49.310;8.134;2024-03-07T08:55:13;7.00;99.90
3300;DHT22;1662;49.310;8.134;2024-03-07T08:57:40;7.20;99.90
3300;DHT22;1662;49.310;8.134;2024-03-07T09:00:07;7.30;99.90
3300;DHT22;1662;49.310;8.134;2024-03-07T09:02:42;7.40;99.90
3300;DHT22;1662;49.310;8.134;2024-03-07T09:05:08;7.40;99.90
3300;DHT22;1662;49.310;8.134;2024-03-07T09:07:35;7.50;99.90
3300;DHT22;1662;49.310;8.134;2024-03-07T09:10:01;7.50;99.90
3300;DHT22;1662;49.310;8.134;2024-03-07T09:12:27;7.60;99.90
3300;DHT22;1662;49.310;8.134;2024-03-07T09:14:53;7.70;99.90
3300;DHT22;1662;49.310;8.134;2024-03-07T09:17:20;7.70;99.90
3300;DHT22;1662;49.310;8.134;2024-03-07T09:19:45;7.60;99.90
3300;DHT22;1662;49.310;8.134;2024-03-07T09:22:11;7.50;99.90
3300;DHT22;1662;49.310;8.134;2024-03-07T09:24:37;7.40;99.90
3300;DHT22;1662;49.310;8.134;2024-03-07T09:27:05;7.30;99.90
3300;DHT22;1662;49.310;8.134;2024-03-07T09:29:31;7.30;99.90
3300;DHT22;1662;49.310;8.134;2024-03-07T09:31:59;7.20;99.90
3300;DHT22;1662;49.310;8.134;2024-03-07T09:34:25;7.20;99.90
3300;DHT22;1662;49.310;8.134;2024-03-07T09:36:51;7.20;99.90
3300;DHT22;1662;49.310;8.134;2024-03-07T09:39:18;7.20;99.90
3300;DHT22;1662;49.310;8.134;2024-03-07T09:41:44;7.20;99.90
3300;DHT22;1662;49.310;8.134;2024-03-07T09:44:14;7.20;99.90
3300;DHT22;1662;49.310;8.134;2024-03-07T09:46:40;7.20;99.90
3300;DHT22;1662;49.310;8.134;2024-03-07T09:49:07;7.20;99.90
3300;DHT22;1662;49.310;8.134;2024-03-07T09:51:35;7.10;99.90
3300;DHT22;1662;49.310;8.134;2024-03-07T09:54:01;7.20;99.90
3300;DHT22;1662;49.310;8.134;2024-03-07T09:56:29;7.20;99.90
3300;DHT22;1662;49.310;8.134;2024-03-07T09:58:58;7.20;99.90
3300;DHT22;1662;49.310;8.134;2024-03-07T10:01:27;7.30;99.90
3300;DHT22;1662;49.310;8.134;2024-03-07T10:03:58;7.30;99.90
3300;DHT22;1662;49.310;8.134;2024-03-07T10:06:24;7.30;99.90
3300;DHT22;1662;49.310;8.134;2024-03-07T10:08:52;7.30;99.90
3300;DHT22;1662;49.310;8.134;2024-03-07T10:11:18;7.40;99.90
3300;DHT22;1662;49.310;8.134;2024-03-07T10:13:44;7.40;99.90
3300;DHT22;1662;49.310;8.134;2024-03-07T10:16:15;7.30;99.90
3300;DHT22;1662;49.310;8.134;2024-03-07T10:18:42;7.30;99.90
3300;DHT22;1662;49.310;8.134;2024-03-07T10:21:11;7.30;99.90
3300;DHT22;1662;49.310;8.134;2024-03-07T10:23:38;7.30;99.90
3300;DHT22;1662;49.310;8.134;2024-03-07T10:26:04;7.40;99.90
3300;DHT22;1662;49.310;8.134;2024-03-07T10:28:30;7.40;99.90
3300;DHT22;1662;49.310;8.134;2024-03-07T10:30:59;7.40;99.90
3300;DHT22;1662;49.310;8.134;2024-03-07T10:33:28;7.50;99.90
3300;DHT22;1662;49.310;8.134;2024-03-07T10:36:00;7.50;99.90
3300;DHT22;1662;49.310;8.134;2024-03-07T10:38:27;7.60;99.90
3300;DHT22;1662;49.310;8.134;2024-03-07T10:40:55;7.70;99.90
3300;DHT22;1662;49.310;8.134;2024-03-07T10:43:21;7.90;99.90
3300;DHT22;1662;49.310;8.134;2024-03-07T10:45:50;8.10;99.90
3300;DHT22;1662;49.310;8.134;2024-03-07T10:48:25;8.30;99.90
3300;DHT22;1662;49.310;8.134;2024-03-07T10:51:04;8.40;99.90
3300;DHT22;1662;49.310;8.134;2024-03-07T10:54:05;8.40;99.90
3300;DHT22;1662;49.310;8.134;2024-03-07T10:59:38;8.60;99.90
3300;DHT22;1662;49.310;8.134;2024-03-07T11:04:53;8.60;99.90
3300;DHT22;1662;49.310;8.134;2024-03-07T11:07:23;8.50;99.90
3300;DHT22;1662;49.310;8.134;2024-03-07T11:09:52;8.50;99.90
3300;DHT22;1662;49.310;8.134;2024-03-07T11:12:27;8.50;99.90
3300;DHT22;1662;49.310;8.134;2024-03-07T11:14:54;8.50;99.90
3300;DHT22;1662;49.310;8.134;2024-03-07T11:17:22;8.40;99.90
3300;DHT22;1662;49.310;8.134;2024-03-07T11:19:48;8.40;99.90
3300;DHT22;1662;49.310;8.134;2024-03-07T11:22:33;8.40;99.90
3300;DHT22;1662;49.310;8.134;2024-03-07T11:25:06;8.50;99.90
3300;DHT22;1662;49.310;8.134;2024-03-07T11:27:39;8.40;99.90
3300;DHT22;1662;49.310;8.134;2024-03-07T11:30:12;8.40;99.90
3300;DHT22;1662;49.310;8.134;2024-03-07T11:32:38;8.40;99.90
3300;DHT22;1662;49.310;8.134;2024-03-07T11:35:05;8.50;99.90
3300;DHT22;1662;49.310;8.134;2024-03-07T11:37:41;8.70;99.90
3300;DHT22;1662;49.310;8.134;2024-03-07T11:40:12;9.00;99.90
3300;DHT22;1662;49.310;8.134;2024-03-07T11:42:47;9.20;99.90
3300;DHT22;1662;49.310;8.134;2024-03-07T11:45:18;9.30;99.90
3300;DHT22;1662;49.310;8.134;2024-03-07T11:47:59;9.20;99.90
3300;DHT22;1662;49.310;8.134;2024-03-07T11:50:29;9.40;99.90
3300;DHT22;1662;49.310;8.134;2024-03-07T11:53:00;9.60;99.90
3300;DHT22;1662;49.310;8.134;2024-03-07T11:55:26;9.90;99.90
3300;DHT22;1662;49.310;8.134;2024-03-07T11:57:54;10.10;99.90
3300;DHT22;1662;49.310;8.134;2024-03-07T12:00:20;10.10;99.90
3300;DHT22;1662;49.310;8.134;2024-03-07T12:02:56;10.20;99.90
3300;DHT22;1662;49.310;8.134;2024-03-07T12:05:22;10.30;99.90
3300;DHT22;1662;49.310;8.134;2024-03-07T12:07:47;10.20;99.90
3300;DHT22;1662;49.310;8.134;2024-03-07T12:10:15;10.10;99.90
3300;DHT22;1662;49.310;8.134;2024-03-07T12:12:42;10.10;99.90
3300;DHT22;1662;49.310;8.134;2024-03-07T12:15:09;10.10;99.90
3300;DHT22;1662;49.310;8.134;2024-03-07T12:17:45;10.10;99.90
3300;DHT22;1662;49.310;8.134;2024-03-07T12:20:12;10.30;99.90
3300;DHT22;1662;49.310;8.134;2024-03-07T12:22:51;10.40;99.90
3300;DHT22;1662;49.310;8.134;2024-03-07T12:25:22;10.30;99.90
3300;DHT22;1662;49.310;8.134;2024-03-07T12:28:03;10.40;99.90
3300;DHT22;1662;49.310;8.134;2024-03-07T12:30:32;10.50;99.90
3300;DHT22;1662;49.310;8.134;2024-03-07T12:33:02;10.60;99.90
3300;DHT22;1662;49.310;8.134;2024-03-07T12:35:32;10.60;99.90
3300;DHT22;1662;49.310;8.134;2024-03-07T12:37:59;10.60;99.90
3300;DHT22;1662;49.310;8.134;2024-03-07T12:40:26;10.60;99.90
3300;DHT22;1662;49.310;8.134;2024-03-07T12:42:54;10.70;99.90
3300;DHT22;1662;49.310;8.134;2024-03-07T12:45:20;10.80;99.90
3300;DHT22;1662;49.310;8.134;2024-03-07T12:47:52;10.70;99.90
3300;DHT22;1662;49.310;8.134;2024-03-07T12:50:21;10.60;99.90
3300;DHT22;1662;49.310;8.134;2024-03-07T12:52:49;10.50;99.90
3300;DHT22;1662;49.310;8.134;2024-03-07T12:55:16;10.40;99.90
3300;DHT22;1662;49.310;8.134;2024-03-07T12:57:47;10.40;99.90
3300;DHT22;1662;49.310;8.134;2024-03-07T13:00:13;10.30;99.90
3300;DHT22;1662;49.310;8.134;2024-03-07T13:02:49;10.30;99.90
3300;DHT22;1662;49.310;8.134;2024-03-07T13:05:15;10.30;99.90
3300;DHT22;1662;49.310;8.134;2024-03-07T13:07:51;10.40;99.90
3300;DHT22;1662;49.310;8.134;2024-03-07T13:10:17;10.40;99.90
3300;DHT22;1662;49.310;8.134;2024-03-07T13:12:47;10.40;99.90
3300;DHT22;1662;49.310;8.134;2024-03-07T13:15:17;10.50;99.90
3300;DHT22;1662;49.310;8.134;2024-03-07T13:17:43;10.50;99.90
3300;DHT22;1662;49.310;8.134;2024-03-07T13:20:12;10.70;99.90
3300;DHT22;1662;49.310;8.134;2024-03-07T13:22:43;10.70;99.90
3300;DHT22;1662;49.310;8.134;2024-03-07T13:25:22;10.60;99.90
3300;DHT22;1662;49.310;8.134;2024-03-07T13:30:21;10.70;99.90
3300;DHT22;1662;49.310;8.134;2024-03-07T13:32:53;10.70;99.90
3300;DHT22;1662;49.310;8.134;2024-03-07T13:35:19;10.70;99.90
3300;DHT22;1662;49.310;8.134;2024-03-07T13:37:47;10.80;99.90
3300;DHT22;1662;49.310;8.134;2024-03-07T13:40:13;10.80;99.90
3300;DHT22;1662;49.310;8.134;2024-03-07T13:42:58;10.90;99.90
3300;DHT22;1662;49.310;8.134;2024-03-07T13:45:26;10.80;99.90
3300;DHT22;1662;49.310;8.134;2024-03-07T13:47:53;10.80;99.90
3300;DHT22;1662;49.310;8.134;2024-03-07T13:50:21;10.80;99.90
3300;DHT22;1662;49.310;8.134;2024-03-07T13:52:53;10.90;99.90
3300;DHT22;1662;49.310;8.134;2024-03-07T13:56:03;10.90;99.90
3300;DHT22;1662;49.310;8.134;2024-03-07T14:27:30;11.80;99.90
3300;DHT22;1662;49.310;8.134;2024-03-07T14:30:04;11.90;99.90
3300;DHT22;1662;49.310;8.134;2024-03-07T14:32:38;12.20;99.90
3300;DHT22;1662;49.310;8.134;2024-03-07T14:40:26;12.00;99.90
3300;DHT22;1662;49.310;8.134;2024-03-07T14:42:55;11.90;99.90
3300;DHT22;1662;49.310;8.134;2024-03-07T14:45:27;11.90;99.90
3300;DHT22;1662;49.310;8.134;2024-03-07T14:47:55;11.70;99.90
3300;DHT22;1662;49.310;8.134;2024-03-07T14:50:22;11.70;99.90
3300;DHT22;1662;49.310;8.134;2024-03-07T14:52:48;11.70;99.90
3300;DHT22;1662;49.310;8.134;2024-03-07T14:55:14;11.70;99.90
3300;DHT22;1662;49.310;8.134;2024-03-07T14:57:41;11.70;99.90
3300;DHT22;1662;49.310;8.134;2024-03-07T15:00:09;11.60;99.90
3300;DHT22;1662;49.310;8.134;2024-03-07T15:02:48;11.60;99.90
3300;DHT22;1662;49.310;8.134;2024-03-07T15:05:15;11.50;99.90
3300;DHT22;1662;49.310;8.134;2024-03-07T15:07:42;11.40;99.90
3300;DHT22;1662;49.310;8.134;2024-03-07T15:10:16;11.30;99.90
3300;DHT22;1662;49.310;8.134;2024-03-07T15:12:47;11.30;99.90
3300;DHT22;1662;49.310;8.134;2024-03-07T15:15:16;11.20;99.90
3300;DHT22;1662;49.310;8.134;2024-03-07T15:17:44;11.10;99.90
3300;DHT22;1662;49.310;8.134;2024-03-07T15:20:11;11.10;99.90
3300;DHT22;1662;49.310;8.134;2024-03-07T15:22:56;11.10;99.90
3300;DHT22;1662;49.310;8.134;2024-03-07T15:25:22;11.00;99.90
3300;DHT22;1662;49.310;8.134;2024-03-07T15:27:53;11.00;99.90
3300;DHT22;1662;49.310;8.134;2024-03-07T15:30:22;11.00;99.90
3300;DHT22;1662;49.310;8.134;2024-03-07T15:32:51;10.90;99.90
3300;DHT22;1662;49.310;8.134;2024-03-07T15:35:19;10.80;99.90
3300;DHT22;1662;49.310;8.134;2024-03-07T15:37:49;10.70;99.90
3300;DHT22;1662;49.310;8.134;2024-03-07T15:40:16;10.70;99.90
3300;DHT22;1662;49.310;8.134;2024-03-07T15:42:46;10.60;99.90
3300;DHT22;1662;49.310;8.134;2024-03-07T15:45:14;10.50;99.90
3300;DHT22;1662;49.310;8.134;2024-03-07T15:47:54;10.50;99.90
3300;DHT22;1662;49.310;8.134;2024-03-07T15:50:21;10.40;99.90
3300;DHT22;1662;49.310;8.134;2024-03-07T15:52:48;10.40;99.90
3300;DHT22;1662;49.310;8.134;2024-03-07T15:55:19;10.30;99.90
3300;DHT22;1662;49.310;8.134;2024-03-07T15:57:55;10.30;99.90
3300;DHT22;1662;49.310;8.134;2024-03-07T16:00:29;10.30;99.90
3300;DHT22;1662;49.310;8.134;2024-03-07T16:02:59;10.30;99.90
3300;DHT22;1662;49.310;8.134;2024-03-07T16:05:28;10.30;99.90
3300;DHT22;1662;49.310;8.134;2024-03-07T16:07:56;10.20;99.90
3300;DHT22;1662;49.310;8.134;2024-03-07T16:10:29;10.20;99.90
3300;DHT22;1662;49.310;8.134;2024-03-07T16:13:03;10.20;99.90
3300;DHT22;1662;49.310;8.134;2024-03-07T16:15:32;10.20;99.90
3300;DHT22;1662;49.310;8.134;2024-03-07T16:17:59;10.20;99.90
3300;DHT22;1662;49.310;8.134;2024-03-07T16:20:31;10.20;99.90
3300;DHT22;1662;49.310;8.134;2024-03-07T16:22:58;10.20;99.90
3300;DHT22;1662;49.310;8.134;2024-03-07T16:25:27;10.20;99.90
3300;DHT22;1662;49.310;8.134;2024-03-07T16:27:53;10.20;99.90
3300;DHT22;1662;49.310;8.134;2024-03-07T16:30:22;10.10;99.90
3300;DHT22;1662;49.310;8.134;2024-03-07T16:32:48;10.10;99.90
3300;DHT22;1662;49.310;8.134;2024-03-07T16:35:16;10.10;99.90
3300;DHT22;1662;49.310;8.134;2024-03-07T16:37:46;10.10;99.90
3300;DHT22;1662;49.310;8.134;2024-03-07T16:40:14;10.10;99.90
3300;DHT22;1662;49.310;8.134;2024-03-07T16:42:48;10.00;99.90
3300;DHT22;1662;49.310;8.134;2024-03-07T16:45:23;10.00;99.90
3300;DHT22;1662;49.310;8.134;2024-03-07T16:47:56;10.00;99.90
3300;DHT22;1662;49.310;8.134;2024-03-07T16:50:25;10.00;99.90
3300;DHT22;1662;49.310;8.134;2024-03-07T16:52:56;10.00;99.90
3300;DHT22;1662;49.310;8.134;2024-03-07T16:55:22;9.90;99.90
3300;DHT22;1662;49.310;8.134;2024-03-07T16:57:50;9.90;99.90
3300;DHT22;1662;49.310;8.134;2024-03-07T17:00:21;9.90;99.90
3300;DHT22;1662;49.310;8.134;2024-03-07T17:03:11;9.90;99.90
3300;DHT22;1662;49.310;8.134;2024-03-07T17:05:39;10.00;99.90